Time;durP1;ratioP1;P1;durP2;ratioP2;P2;SDS_P1;SDS_P2;PMS_P1;PMS_P2;Temp;Humidity;BMP_temperature;BMP_pressure;BME280_temperature;BME280_humidity;BME280_pressure;Samples;Min_cycle;Max_cycle;Signal;HPM_P1;HPM_P2
2022/05/23 00:00:12;;;;;;;3.83;3.13;;;19.10;64.20;;;;;;5004089;28;20985;-43
2022/05/23 00:02:39;;;;;;;4.37;3.47;;;19.10;63.40;;;;;;5004870;28;20530;-44
2022/05/23 00:05:06;;;;;;;3.50;2.97;;;19.10;63.40;;;;;;5008051;28;20543;-44
2022/05/23 00:07:36;;;;;;;3.20;2.90;;;19.10;63.70;;;;;;5004095;28;20474;-44
2022/05/23 00:10:05;;;;;;;4.47;3.73;;;19.10;63.50;;;;;;5006885;28;20464;-44
2022/05/23 00:12:32;;;;;;;3.20;2.90;;;19.10;63.10;;;;;;5004296;28;21041;-44
2022/05/23 00:14:58;;;;;;;5.07;3.27;;;19.10;62.70;;;;;;5009161;28;20534;-44
2022/05/23 00:17:25;;;;;;;4.90;3.33;;;19.20;62.50;;;;;;5007124;28;20456;-43
2022/05/23 00:19:52;;;;;;;3.50;3.20;;;19.20;62.40;;;;;;5006303;28;20452;-44
2022/05/23 00:22:19;;;;;;;5.50;3.77;;;19.20;62.30;;;;;;5006694;28;20468;-44
2022/05/23 00:24:46;;;;;;;3.97;2.60;;;19.20;62.40;;;;;;4985363;28;20488;-43
2022/05/23 00:27:20;;;;;;;4.27;2.60;;;19.20;62.40;;;;;;5006741;28;20458;-43
2022/05/23 00:29:47;;;;;;;4.40;3.00;;;19.30;62.30;;;;;;5004661;28;20461;-44
2022/05/23 00:35:17;;;;;;;6.30;3.30;;;19.30;62.40;;;;;;5006458;28;20493;-44
2022/05/23 00:37:51;;;;;;;3.70;3.40;;;19.30;62.20;;;;;;5006240;28;20584;-43
2022/05/23 00:40:30;;;;;;;5.30;3.57;;;19.30;62.20;;;;;;5006967;28;20460;-43
2022/05/23 00:43:15;;;;;;;5.10;3.10;;;19.30;62.40;;;;;;5003800;28;20491;-44
2022/05/23 00:45:52;;;;;;;3.60;2.90;;;19.30;62.40;;;;;;5004735;28;20461;-44
2022/05/23 00:48:23;;;;;;;4.33;3.70;;;19.20;62.30;;;;;;5004856;28;20460;-44
2022/05/23 00:51:01;;;;;;;3.30;3.00;;;19.20;62.30;;;;;;4989279;28;20460;-43
2022/05/23 00:53:38;;;;;;;3.67;3.00;;;19.20;62.30;;;;;;5006540;28;20472;-44
2022/05/23 00:56:12;;;;;;;6.97;2.87;;;19.20;62.30;;;;;;5007577;28;20502;-43
2022/05/23 00:59:00;;;;;;;3.33;2.93;;;19.20;62.40;;;;;;4985774;28;20467;-46
2022/05/23 01:01:30;;;;;;;4.53;2.90;;;19.20;62.40;;;;;;4991109;28;20932;-46
2022/05/23 01:03:57;;;;;;;3.77;3.17;;;19.20;62.30;;;;;;5010414;28;20574;-46
2022/05/23 01:06:24;;;;;;;4.10;3.70;;;19.20;62.30;;;;;;5007828;28;20471;-46
2022/05/23 01:08:55;;;;;;;2.87;2.57;;;19.20;62.40;;;;;;5007907;28;21025;-46
2022/05/23 01:11:22;;;;;;;4.77;3.17;;;19.20;62.40;;;;;;4992176;28;20491;-46
2022/05/23 01:13:53;;;;;;;3.13;2.60;;;19.20;62.30;;;;;;5009324;28;20471;-46
2022/05/23 01:16:21;;;;;;;5.67;3.23;;;19.20;62.40;;;;;;5010807;28;21088;-46
2022/05/23 01:18:48;;;;;;;3.60;3.10;;;19.20;62.50;;;;;;5011162;28;20464;-47
2022/05/23 01:21:45;;;;;;;5.37;3.03;;;19.20;62.50;;;;;;4993676;28;20490;-47
2022/05/23 01:24:28;;;;;;;4.47;2.90;;;19.20;62.50;;;;;;4995563;28;20570;-47
2022/05/23 01:26:57;;;;;;;4.60;3.70;;;19.10;62.70;;;;;;5009304;28;20456;-46
2022/05/23 01:29:24;;;;;;;3.00;2.63;;;19.20;62.80;;;;;;5006845;28;20460;-46
2022/05/23 01:31:53;;;;;;;4.50;3.33;;;19.20;62.80;;;;;;5010655;28;20595;-46
2022/05/23 01:34:19;;;;;;;4.00;3.70;;;19.20;62.70;;;;;;5007236;28;20464;-47
2022/05/23 01:36:46;;;;;;;2.83;2.40;;;19.10;62.80;;;;;;5010311;28;20468;-47
2022/05/23 01:39:13;;;;;;;3.00;2.80;;;19.10;62.80;;;;;;4991011;28;20479;-47
2022/05/23 01:41:39;;;;;;;6.60;3.27;;;19.10;63.10;;;;;;5010606;28;20464;-46
2022/05/23 01:44:06;;;;;;;2.80;2.60;;;19.10;63.60;;;;;;4989338;28;20484;-47
2022/05/23 01:46:33;;;;;;;5.30;3.10;;;19.10;63.70;;;;;;5005775;28;20548;-47
2022/05/23 01:49:00;;;;;;;3.10;2.80;;;19.00;63.70;;;;;;5012685;28;20456;-47
2022/05/23 01:51:26;;;;;;;2.90;2.70;;;19.00;63.30;;;;;;5008612;28;20457;-46
2022/05/23 01:53:55;;;;;;;5.03;3.17;;;19.00;63.10;;;;;;4993640;28;20466;-46
2022/05/23 01:56:21;;;;;;;3.80;3.50;;;19.00;63.00;;;;;;4990436;28;20462;-46
2022/05/23 02:01:40;;;;;;;3.70;2.97;;;19.00;63.00;;;;;;5006792;28;20969;-46
2022/05/23 02:04:06;;;;;;;3.17;2.97;;;18.90;63.20;;;;;;4990382;28;20504;-46
2022/05/23 02:06:33;;;;;;;2.83;2.63;;;18.90;63.00;;;;;;5006457;28;20473;-46
2022/05/23 02:09:00;;;;;;;3.63;2.80;;;18.90;63.00;;;;;;5002901;28;20849;-46
2022/05/23 02:11:27;;;;;;;3.80;2.90;;;18.90;63.00;;;;;;5005753;28;20491;-46
2022/05/23 02:13:53;;;;;;;2.77;2.47;;;18.90;63.20;;;;;;5009017;28;20844;-46
2022/05/23 02:16:22;;;;;;;3.93;2.70;;;18.90;63.20;;;;;;5005997;28;20904;-46
2022/05/23 02:18:49;;;;;;;3.57;3.00;;;18.90;63.80;;;;;;5007562;28;20593;-46
2022/05/23 02:21:16;;;;;;;4.73;2.77;;;18.90;64.00;;;;;;5007523;28;20472;-46
2022/05/23 02:23:43;;;;;;;3.37;2.37;;;18.90;64.00;;;;;;5008913;28;20488;-47
2022/05/23 02:26:10;;;;;;;3.03;2.83;;;18.80;63.50;;;;;;5007115;28;20456;-42
2022/05/23 02:28:36;;;;;;;2.90;2.63;;;18.80;63.50;;;;;;5008612;28;20466;-42
2022/05/23 02:31:03;;;;;;;3.37;2.90;;;18.80;63.50;;;;;;5007921;28;21139;-42
2022/05/23 02:33:30;;;;;;;3.67;3.00;;;18.80;63.40;;;;;;5008469;28;20892;-42
2022/05/23 02:35:57;;;;;;;3.60;3.10;;;18.80;63.00;;;;;;5008700;28;20479;-42
2022/05/23 02:38:23;;;;;;;3.30;3.00;;;18.80;62.90;;;;;;5008514;28;20467;-42
2022/05/23 02:40:50;;;;;;;3.90;3.60;;;18.80;62.90;;;;;;4988987;28;20464;-42
2022/05/23 02:43:17;;;;;;;4.40;3.17;;;18.80;62.60;;;;;;4988184;28;20472;-42
2022/05/23 02:45:44;;;;;;;4.53;2.77;;;18.70;62.60;;;;;;5006993;28;20463;-43
2022/05/23 02:48:11;;;;;;;4.23;3.10;;;18.70;62.60;;;;;;5008018;28;20858;-45
2022/05/23 02:50:37;;;;;;;2.97;2.70;;;18.70;62.70;;;;;;5008001;28;20958;-46
2022/05/23 02:53:04;;;;;;;3.10;2.90;;;18.70;62.80;;;;;;4989856;28;20950;-46
2022/05/23 02:55:31;;;;;;;3.17;2.90;;;18.70;62.90;;;;;;5008659;28;20463;-46
2022/05/23 02:57:58;;;;;;;4.07;3.43;;;18.70;62.60;;;;;;5007681;28;20464;-46
2022/05/23 03:00:24;;;;;;;3.17;2.90;;;18.80;62.40;;;;;;5010460;28;20463;-47
2022/05/23 03:03:03;;;;;;;3.93;2.90;;;18.80;62.30;;;;;;5008089;28;21168;-47
2022/05/23 03:05:36;;;;;;;4.37;2.70;;;18.80;62.30;;;;;;4992642;28;20993;-47
2022/05/23 03:08:03;;;;;;;3.50;2.80;;;18.80;62.30;;;;;;5005963;28;20464;-47
2022/05/23 03:10:30;;;;;;;3.13;2.73;;;18.80;62.20;;;;;;5007326;28;20969;-47
2022/05/23 03:12:57;;;;;;;5.13;3.17;;;18.70;62.20;;;;;;5003037;28;20475;-47
2022/05/23 03:15:24;;;;;;;3.83;2.97;;;18.70;62.60;;;;;;5007542;28;20472;-47
2022/05/23 03:17:51;;;;;;;3.73;2.83;;;18.70;63.30;;;;;;5006231;28;20487;-47
2022/05/23 03:20:18;;;;;;;4.20;3.03;;;18.70;64.00;;;;;;4985849;28;20575;-47
2022/05/23 03:28:16;;;;;;;3.27;2.93;;;18.70;62.50;;;;;;5005738;28;20598;-47
2022/05/23 03:30:43;;;;;;;5.23;2.43;;;18.70;63.00;;;;;;5005667;28;20977;-46
2022/05/23 03:33:11;;;;;;;5.00;3.30;;;18.70;63.70;;;;;;5007965;28;20464;-46
2022/05/23 03:35:39;;;;;;;2.50;2.30;;;18.70;63.50;;;;;;4985000;28;20466;-47
2022/05/23 03:38:06;;;;;;;3.40;3.10;;;18.70;62.50;;;;;;5006593;28;20591;-47
2022/05/23 03:40:36;;;;;;;4.50;3.23;;;18.80;62.80;;;;;;5004746;28;20460;-47
2022/05/23 03:43:03;;;;;;;3.87;2.90;;;18.70;63.20;;;;;;5008224;28;20887;-47
2022/05/23 03:45:31;;;;;;;5.60;3.50;;;18.70;63.30;;;;;;5006856;28;20498;-47
2022/05/23 03:47:58;;;;;;;4.20;3.03;;;18.70;63.90;;;;;;5005733;28;20555;-47
2022/05/23 03:50:27;;;;;;;6.70;3.30;;;18.70;64.40;;;;;;5005101;28;21023;-47
2022/05/23 03:52:54;;;;;;;4.10;3.33;;;18.60;65.00;;;;;;5000831;28;20877;-47
2022/05/23 03:55:23;;;;;;;3.93;3.40;;;18.60;65.40;;;;;;5007829;28;20466;-47
2022/05/23 03:57:49;;;;;;;3.73;3.33;;;18.60;65.80;;;;;;5006171;28;20595;-47
2022/05/23 04:00:18;;;;;;;4.90;3.20;;;18.60;65.90;;;;;;5003686;28;20517;-47
2022/05/23 04:02:44;;;;;;;4.50;3.13;;;18.60;66.20;;;;;;5006578;28;20467;-47
2022/05/23 04:05:14;;;;;;;3.50;3.10;;;18.60;66.50;;;;;;5006388;28;20484;-47
2022/05/23 04:07:43;;;;;;;5.33;3.60;;;18.60;67.10;;;;;;5005980;28;20472;-47
2022/05/23 04:10:17;;;;;;;4.20;3.30;;;18.60;67.70;;;;;;5002853;28;20616;-47
2022/05/23 04:12:45;;;;;;;4.37;3.70;;;18.50;68.10;;;;;;5006992;28;20462;-47
2022/05/23 04:15:12;;;;;;;4.40;3.80;;;18.50;67.90;;;;;;5009173;28;22051;-47
2022/05/23 04:17:39;;;;;;;3.90;3.50;;;18.50;67.10;;;;;;4988957;28;21345;-46
2022/05/23 04:20:08;;;;;;;3.90;3.50;;;18.50;66.80;;;;;;5003903;28;20475;-47
2022/05/23 04:22:36;;;;;;;5.57;3.43;;;18.50;66.70;;;;;;5007880;28;20487;-47
2022/05/23 04:25:04;;;;;;;4.10;3.60;;;18.50;65.70;;;;;;5004528;28;20492;-47
2022/05/23 04:27:31;;;;;;;5.83;3.83;;;18.40;65.50;;;;;;4987220;28;20464;-47
2022/05/23 04:29:58;;;;;;;7.63;3.53;;;18.40;64.90;;;;;;5006534;28;20827;-47
2022/05/23 04:35:13;;;;;;;3.90;3.23;;;18.40;64.70;;;;;;5003907;28;20889;-46
2022/05/23 04:37:45;;;;;;;4.23;3.83;;;18.40;64.70;;;;;;5007562;28;20475;-47
2022/05/23 04:40:14;;;;;;;4.50;4.10;;;18.40;64.70;;;;;;4991396;28;20460;-46
2022/05/23 04:42:41;;;;;;;5.00;3.90;;;18.40;64.60;;;;;;5012748;28;20464;-46
2022/05/23 04:45:10;;;;;;;4.90;3.77;;;18.40;64.50;;;;;;5009146;28;20491;-46
2022/05/23 04:50:23;;;;;;;6.50;4.20;;;18.40;64.80;;;;;;5006897;28;20460;-46
2022/05/23 04:52:51;;;;;;;7.83;4.10;;;18.40;64.40;;;;;;5011511;28;20464;-46
2022/05/23 04:55:19;;;;;;;8.93;4.43;;;18.40;64.20;;;;;;5011722;28;20474;-46
2022/05/23 04:57:46;;;;;;;4.03;3.63;;;18.40;64.10;;;;;;5010628;28;20851;-46
2022/05/23 05:00:18;;;;;;;6.13;4.10;;;18.40;64.00;;;;;;5010889;28;20464;-46
2022/05/23 05:02:46;;;;;;;4.70;3.93;;;18.40;64.00;;;;;;4991676;28;20456;-46
2022/05/23 05:05:14;;;;;;;5.20;3.57;;;18.50;63.90;;;;;;5008600;28;20494;-46
2022/05/23 05:07:41;;;;;;;4.70;3.97;;;18.40;64.00;;;;;;4984936;28;20467;-46
2022/05/23 05:10:08;;;;;;;6.43;4.27;;;18.40;64.60;;;;;;5011996;28;20471;-46
2022/05/23 05:12:35;;;;;;;9.23;4.67;;;18.40;64.80;;;;;;5006331;28;21029;-46
2022/05/23 05:15:02;;;;;;;7.13;5.40;;;18.40;65.20;;;;;;5007946;28;20464;-46
2022/05/23 05:17:29;;;;;;;6.37;4.87;;;18.30;65.80;;;;;;5012276;28;20464;-46
2022/05/23 05:19:56;;;;;;;6.43;4.50;;;18.30;66.40;;;;;;5009295;28;20543;-46
2022/05/23 05:22:23;;;;;;;6.30;4.80;;;18.30;67.10;;;;;;5006436;28;20463;-46
2022/05/23 05:24:50;;;;;;;8.33;4.70;;;18.30;67.80;;;;;;4993289;28;20487;-46
2022/05/23 05:27:16;;;;;;;6.37;4.97;;;18.40;68.00;;;;;;5013118;28;20447;-46
2022/05/23 05:29:43;;;;;;;8.60;5.00;;;18.30;68.30;;;;;;5011426;28;20461;-46
2022/05/23 05:32:22;;;;;;;8.90;5.13;;;18.30;69.50;;;;;;4993671;28;20663;-46
2022/05/23 05:35:27;;;;;;;5.93;5.33;;;18.30;70.70;;;;;;5009488;28;20463;-46
2022/05/23 05:38:04;;;;;;;9.90;4.73;;;18.30;71.00;;;;;;4975288;28;20459;-46
2022/05/23 05:40:34;;;;;;;6.17;4.60;;;18.30;71.50;;;;;;4991982;28;20579;-46
2022/05/23 05:43:12;;;;;;;5.40;4.70;;;18.20;72.50;;;;;;5010893;28;20466;-46
2022/05/23 05:45:48;;;;;;;6.80;4.63;;;18.20;72.00;;;;;;4990419;28;20889;-46
2022/05/23 05:48:15;;;;;;;8.17;6.43;;;18.10;73.10;;;;;;4989958;28;20562;-46
2022/05/23 05:50:44;;;;;;;7.43;5.03;;;18.00;73.80;;;;;;5005735;28;20471;-46
2022/05/23 05:53:17;;;;;;;7.50;5.00;;;17.90;73.40;;;;;;4987362;28;20467;-46
2022/05/23 05:55:45;;;;;;;5.60;5.00;;;17.80;73.70;;;;;;5007890;28;20484;-46
2022/05/23 05:58:11;;;;;;;5.80;5.20;;;17.80;73.80;;;;;;5011129;28;20457;-46
2022/05/23 06:00:47;;;;;;;8.17;5.60;;;17.70;73.70;;;;;;5008540;28;20472;-48
2022/05/23 06:03:14;;;;;;;5.57;5.07;;;17.60;73.80;;;;;;5011322;28;20460;-46
2022/05/23 06:11:23;;;;;;;5.30;4.80;;;17.60;73.80;;;;;;5008922;28;20973;-46
2022/05/23 06:13:51;;;;;;;5.90;4.87;;;17.50;74.00;;;;;;4992289;28;20472;-46
2022/05/23 06:16:19;;;;;;;6.40;5.53;;;17.50;74.00;;;;;;4990882;28;20551;-46
2022/05/23 06:18:46;;;;;;;6.30;4.97;;;17.50;74.10;;;;;;4994683;28;20491;-44
2022/05/23 06:21:14;;;;;;;5.70;4.80;;;17.50;73.90;;;;;;5007275;28;20464;-42
2022/05/23 06:23:42;;;;;;;6.67;4.90;;;17.60;74.10;;;;;;5004764;28;20868;-42
2022/05/23 06:26:09;;;;;;;10.53;5.93;;;17.60;74.10;;;;;;5004354;28;20504;-42
2022/05/23 06:28:36;;;;;;;7.93;5.50;;;17.60;74.60;;;;;;5007807;28;21003;-45
2022/05/23 06:31:03;;;;;;;6.20;5.40;;;17.70;75.10;;;;;;5005402;28;20558;-42
2022/05/23 06:33:30;;;;;;;8.80;6.23;;;17.80;75.00;;;;;;5007169;28;20975;-42
2022/05/23 06:35:57;;;;;;;10.57;5.67;;;17.80;74.90;;;;;;4977733;28;20464;-42
2022/05/23 06:38:25;;;;;;;5.00;4.50;;;17.90;74.20;;;;;;5010219;28;20471;-44
2022/05/23 06:40:52;;;;;;;9.23;6.10;;;18.00;74.00;;;;;;5010695;28;20472;-45
2022/05/23 06:43:19;;;;;;;6.67;5.77;;;18.10;73.60;;;;;;5014145;28;20475;-45
2022/05/23 06:45:47;;;;;;;8.00;6.03;;;18.10;73.50;;;;;;5013979;28;20488;-45
2022/05/23 06:48:14;;;;;;;6.17;5.57;;;18.20;73.60;;;;;;5006802;28;20452;-46
2022/05/23 06:50:42;;;;;;;8.00;5.53;;;18.40;73.50;;;;;;5011386;28;20467;-45
2022/05/23 06:53:08;;;;;;;9.90;5.70;;;18.40;72.80;;;;;;5013066;28;20447;-45
2022/05/23 06:55:35;;;;;;;5.97;5.33;;;18.50;72.20;;;;;;5011819;28;20953;-46
2022/05/23 06:58:02;;;;;;;5.20;4.70;;;18.60;72.00;;;;;;4996367;28;20452;-45
2022/05/23 07:00:29;;;;;;;6.50;5.40;;;18.80;72.70;;;;;;5005636;28;20492;-45
2022/05/23 07:02:56;;;;;;;10.73;5.67;;;18.90;72.90;;;;;;5011186;28;21005;-45
2022/05/23 07:13:39;;;;;;;5.43;4.97;;;19.50;71.80;;;;;;5010841;28;20551;-46
2022/05/23 07:16:07;;;;;;;7.00;5.13;;;19.70;69.50;;;;;;5001193;28;20463;-46
2022/05/23 07:18:34;;;;;;;6.87;5.10;;;19.80;69.20;;;;;;5007463;28;20490;-46
2022/05/23 07:21:03;;;;;;;6.23;5.33;;;19.90;68.90;;;;;;5008925;28;20463;-46
2022/05/23 07:23:30;;;;;;;5.20;4.70;;;20.00;69.20;;;;;;4991540;28;20531;-46
2022/05/23 07:25:57;;;;;;;6.20;5.00;;;20.10;68.80;;;;;;5008881;28;20488;-46
2022/05/23 07:28:23;;;;;;;5.97;5.30;;;20.20;68.20;;;;;;4992345;28;20449;-46
2022/05/23 07:30:50;;;;;;;9.27;4.90;;;20.20;67.70;;;;;;5008344;28;20563;-46
2022/05/23 07:33:17;;;;;;;7.40;5.17;;;20.30;68.40;;;;;;4995352;28;21012;-46
2022/05/23 07:35:56;;;;;;;5.67;5.07;;;20.40;67.80;;;;;;4991920;28;20464;-46
2022/05/23 07:38:23;;;;;;;5.87;5.00;;;20.60;68.20;;;;;;5009649;28;20476;-46
2022/05/23 07:40:51;;;;;;;8.50;5.83;;;20.50;67.40;;;;;;5005548;28;21014;-46
2022/05/23 07:43:19;;;;;;;7.87;5.20;;;20.60;68.00;;;;;;4990220;28;20460;-46
2022/05/23 07:45:49;;;;;;;5.67;3.97;;;20.60;67.40;;;;;;5006659;28;20519;-46
2022/05/23 07:48:16;;;;;;;5.03;4.53;;;20.70;66.90;;;;;;5010253;28;20472;-46
2022/05/23 07:50:43;;;;;;;5.93;5.10;;;20.90;67.10;;;;;;5007068;28;20894;-46
2022/05/23 08:01:27;;;;;;;5.80;5.30;;;21.20;64.90;;;;;;4994851;28;20987;-46
2022/05/23 08:03:55;;;;;;;6.43;4.57;;;21.30;64.10;;;;;;5008886;28;20830;-46
2022/05/23 08:06:22;;;;;;;8.00;4.93;;;21.30;63.60;;;;;;5007725;28;20554;-46
2022/05/23 08:08:48;;;;;;;6.53;4.83;;;21.50;63.20;;;;;;4996685;28;20437;-46
2022/05/23 08:11:17;;;;;;;6.73;4.93;;;21.60;62.80;;;;;;5011039;28;20484;-46
2022/05/23 08:13:47;;;;;;;5.70;5.13;;;21.70;62.60;;;;;;4997129;28;20466;-46
2022/05/23 08:16:14;;;;;;;7.60;5.20;;;21.80;62.40;;;;;;5013362;28;20452;-46
2022/05/23 08:18:41;;;;;;;5.40;4.90;;;21.80;62.40;;;;;;5012812;28;20448;-46
2022/05/23 08:21:07;;;;;;;7.90;5.70;;;21.90;62.70;;;;;;5013104;28;20990;-46
2022/05/23 08:23:34;;;;;;;4.70;4.30;;;22.00;62.80;;;;;;5010371;28;20969;-47
2022/05/23 08:26:02;;;;;;;7.00;5.00;;;22.10;63.40;;;;;;5012695;28;20495;-46
2022/05/23 08:28:29;;;;;;;9.60;5.47;;;22.20;63.60;;;;;;4992525;28;20464;-46
2022/05/23 08:30:57;;;;;;;6.73;5.00;;;22.30;63.40;;;;;;5009754;28;20482;-46
2022/05/23 08:33:23;;;;;;;9.60;6.03;;;22.30;63.40;;;;;;5011435;28;20472;-46
2022/05/23 08:35:50;;;;;;;5.90;4.60;;;22.30;63.50;;;;;;4994469;28;20558;-46
2022/05/23 08:38:17;;;;;;;6.73;5.37;;;22.40;62.80;;;;;;5010708;28;20849;-46
2022/05/23 08:40:53;;;;;;;6.73;6.03;;;22.40;62.30;;;;;;4989867;28;20516;-47
2022/05/23 08:43:40;;;;;;;8.20;5.70;;;22.50;61.60;;;;;;4994306;28;20854;-46
2022/05/23 08:46:10;;;;;;;5.70;4.70;;;22.50;62.30;;;;;;5008349;28;20493;-47
2022/05/23 08:48:57;;;;;;;5.30;4.77;;;22.60;62.90;;;;;;5007377;28;20466;-46
2022/05/23 08:51:35;;;;;;;5.90;4.70;;;22.70;61.80;;;;;;5014211;28;20588;-47
2022/05/23 08:54:15;;;;;;;5.57;5.00;;;22.90;62.50;;;;;;5012509;28;20961;-47
2022/05/23 08:56:52;;;;;;;6.03;5.47;;;23.10;60.60;;;;;;5008491;28;20755;-47
2022/05/23 08:59:25;;;;;;;5.80;5.20;;;23.20;60.70;;;;;;5008652;28;20467;-47
2022/05/23 09:02:00;;;;;;;6.97;4.70;;;23.20;59.80;;;;;;5010524;28;20558;-47
2022/05/23 09:04:42;;;;;;;5.73;4.50;;;23.40;60.50;;;;;;5008526;28;20521;-47
2022/05/23 09:07:33;;;;;;;5.90;5.00;;;23.60;60.20;;;;;;5010670;28;20462;-47
2022/05/23 09:10:05;;;;;;;6.53;5.93;;;23.80;59.80;;;;;;4994306;28;20463;-47
2022/05/23 09:12:32;;;;;;;7.90;5.50;;;24.00;59.00;;;;;;5008195;28;20459;-47
2022/05/23 09:14:59;;;;;;;5.43;4.90;;;24.10;58.90;;;;;;4993656;28;20451;-47
2022/05/23 09:17:35;;;;;;;8.53;5.10;;;24.20;58.40;;;;;;5010014;28;20897;-47
2022/05/23 09:20:12;;;;;;;5.90;5.00;;;24.40;57.80;;;;;;5010990;28;20586;-47
2022/05/23 09:22:51;;;;;;;6.87;4.93;;;24.50;57.50;;;;;;5011675;28;20463;-47
2022/05/23 09:25:21;;;;;;;8.10;4.50;;;24.70;57.50;;;;;;5005016;28;20921;-47
2022/05/23 09:28:09;;;;;;;5.00;4.10;;;24.80;57.40;;;;;;5012583;28;20470;-47
2022/05/23 09:30:39;;;;;;;4.50;4.10;;;25.00;56.90;;;;;;5011330;28;20490;-47
2022/05/23 09:33:16;;;;;;;7.03;4.73;;;25.30;56.80;;;;;;5010522;28;20494;-47
2022/05/23 09:35:43;;;;;;;4.67;4.27;;;25.50;55.40;;;;;;4992652;28;20455;-48
2022/05/23 09:38:26;;;;;;;4.57;4.17;;;25.80;55.50;;;;;;5012704;28;20455;-47
2022/05/23 09:40:53;;;;;;;7.07;4.30;;;26.10;54.40;;;;;;5012131;28;20452;-48
2022/05/23 09:49:08;;;;;;;6.97;3.57;;;26.80;52.70;;;;;;5014306;28;20222;-47
2022/05/23 09:51:58;;;;;;;3.97;3.67;;;27.10;52.30;;;;;;5010382;28;20958;-47
2022/05/23 09:54:33;;;;;;;5.57;3.17;;;27.40;52.00;;;;;;5007069;28;20248;-47
2022/05/23 09:57:03;;;;;;;3.50;3.20;;;27.70;51.00;;;;;;5012443;28;20826;-47
2022/05/23 09:59:34;;;;;;;4.80;2.63;;;27.90;48.70;;;;;;4993502;28;20490;-47
2022/05/23 10:02:15;;;;;;;5.13;3.70;;;27.90;49.60;;;;;;4992379;28;20217;-47
2022/05/23 10:04:46;;;;;;;4.03;3.63;;;27.80;50.00;;;;;;5008480;28;20205;-47
2022/05/23 10:07:32;;;;;;;3.33;3.00;;;27.80;49.40;;;;;;5008199;28;20311;-47
2022/05/23 10:10:22;;;;;;;3.83;2.73;;;27.70;49.80;;;;;;4991749;28;20227;-47
2022/05/23 10:12:49;;;;;;;6.23;3.57;;;27.60;49.90;;;;;;4991351;28;20268;-47
2022/05/23 10:15:24;;;;;;;3.43;3.10;;;27.50;50.10;;;;;;4992093;28;20693;-47
2022/05/23 10:18:08;;;;;;;4.20;3.40;;;27.60;50.40;;;;;;5011752;28;20436;-47
2022/05/23 10:20:42;;;;;;;3.37;3.07;;;27.60;50.70;;;;;;5010113;28;21069;-47
2022/05/23 10:23:22;;;;;;;3.40;3.10;;;27.60;50.40;;;;;;5011842;28;20296;-47
2022/05/23 10:26:15;;;;;;;3.03;2.80;;;27.80;50.00;;;;;;5010998;28;21013;-47
2022/05/23 10:28:55;;;;;;;5.37;3.43;;;27.80;50.20;;;;;;5007279;28;20211;-47
2022/05/23 10:31:46;;;;;;;4.13;3.40;;;27.60;50.20;;;;;;5008888;28;20316;-47
2022/05/23 10:34:37;;;;;;;4.80;3.97;;;27.60;50.40;;;;;;5008500;28;20259;-47
2022/05/23 10:37:08;;;;;;;6.80;4.37;;;27.20;51.20;;;;;;5009664;28;20215;-47
2022/05/23 10:42:40;;;;;;;4.13;3.53;;;26.80;52.50;;;;;;5009212;28;21040;-47
2022/05/23 10:45:21;;;;;;;6.90;4.10;;;26.70;53.60;;;;;;5010036;28;20443;-48
2022/05/23 10:48:13;;;;;;;6.43;4.00;;;26.60;54.00;;;;;;4999898;28;20491;-47
2022/05/23 10:50:48;;;;;;;9.33;4.93;;;26.40;54.50;;;;;;5007139;28;20470;-47
2022/05/23 10:53:31;;;;;;;6.77;4.90;;;26.30;54.70;;;;;;5006196;28;20459;-47
2022/05/23 10:56:26;;;;;;;4.83;4.30;;;26.20;55.00;;;;;;4987621;28;20459;-47
2022/05/23 10:59:12;;;;;;;5.13;4.57;;;26.00;55.30;;;;;;4970474;28;20478;-47
2022/05/23 11:01:54;;;;;;;5.00;4.10;;;26.00;55.60;;;;;;5004945;28;20463;-47
2022/05/23 11:04:42;;;;;;;8.23;4.33;;;25.80;56.00;;;;;;5007548;28;20473;-47
2022/05/23 11:07:12;;;;;;;6.40;4.93;;;25.70;56.80;;;;;;5008272;28;20488;-48
2022/05/23 11:09:57;;;;;;;5.10;4.60;;;25.60;56.90;;;;;;5007848;28;21127;-47
2022/05/23 11:12:49;;;;;;;5.60;4.57;;;25.40;57.30;;;;;;5009661;28;20459;-47
2022/05/23 11:15:21;;;;;;;5.40;4.47;;;25.40;57.60;;;;;;5009270;28;20834;-49
2022/05/23 11:18:10;;;;;;;7.67;4.87;;;25.20;58.00;;;;;;5001077;28;20459;-48
2022/05/23 11:20:39;;;;;;;6.07;5.40;;;25.20;58.30;;;;;;5008031;28;23194;-47
2022/05/23 11:23:09;;;;;;;8.60;5.30;;;25.00;58.20;;;;;;5008749;28;20539;-48
2022/05/23 11:25:43;;;;;;;5.43;4.70;;;24.90;58.70;;;;;;4989720;28;20562;-47
2022/05/23 11:34:25;;;;;;;5.33;3.70;;;24.80;59.90;;;;;;5008607;28;20456;-48
2022/05/23 11:39:48;;;;;;;4.40;4.00;;;24.80;60.30;;;;;;5010578;28;20460;-48
2022/05/23 11:42:28;;;;;;;5.60;3.90;;;24.70;60.90;;;;;;5008523;28;20451;-48
2022/05/23 11:47:59;;;;;;;5.13;4.20;;;24.60;60.80;;;;;;5008449;28;20469;-48
2022/05/23 11:50:32;;;;;;;6.20;4.83;;;24.60;61.30;;;;;;5006674;28;20469;-48
2022/05/23 11:53:23;;;;;;;7.13;5.17;;;24.50;61.90;;;;;;5006019;28;20959;-48
2022/05/23 11:55:55;;;;;;;7.77;5.50;;;24.50;61.80;;;;;;5010132;28;20443;-48
2022/05/23 11:58:46;;;;;;;6.40;4.43;;;24.40;62.00;;;;;;5008386;28;20463;-48
2022/05/23 12:01:19;;;;;;;7.03;4.93;;;24.50;62.20;;;;;;5008557;28;20898;-48
2022/05/23 12:03:58;;;;;;;6.73;5.67;;;24.60;62.10;;;;;;5007292;28;20606;-48
2022/05/23 12:06:24;;;;;;;5.80;5.03;;;24.60;62.20;;;;;;5003619;28;20491;-48
2022/05/23 12:08:57;;;;;;;4.53;4.20;;;24.60;62.20;;;;;;5008726;28;20542;-48
2022/05/23 12:11:24;;;;;;;7.50;5.40;;;24.70;62.30;;;;;;5006866;28;20461;-48
2022/05/23 12:13:58;;;;;;;7.07;5.37;;;24.70;62.50;;;;;;5001312;28;20492;-48
2022/05/23 12:16:30;;;;;;;9.37;5.10;;;24.60;62.40;;;;;;4990108;28;20513;-48
2022/05/23 12:19:28;;;;;;;6.40;5.30;;;24.60;63.00;;;;;;5010206;28;20872;-48
2022/05/23 12:22:23;;;;;;;7.70;5.40;;;24.50;62.90;;;;;;4980855;28;20459;-48
2022/05/23 12:25:09;;;;;;;9.87;5.23;;;24.50;63.40;;;;;;5003716;28;21004;-48
2022/05/23 12:27:37;;;;;;;6.17;5.57;;;24.50;63.40;;;;;;5004287;28;20904;-48
2022/05/23 12:30:24;;;;;;;8.33;5.13;;;24.50;63.60;;;;;;5006629;28;20506;-48
2022/05/23 12:32:59;;;;;;;7.50;5.17;;;24.60;63.60;;;;;;5004235;28;21273;-48
2022/05/23 12:35:48;;;;;;;8.57;4.70;;;24.60;63.60;;;;;;5005107;28;20826;-47
2022/05/23 12:38:46;;;;;;;6.07;5.03;;;24.60;63.80;;;;;;4984857;28;20455;-47
2022/05/23 12:41:12;;;;;;;5.43;4.80;;;24.60;64.50;;;;;;5006983;28;20545;-47
2022/05/23 12:44:13;;;;;;;5.87;5.33;;;24.60;64.60;;;;;;5005720;28;21150;-47
2022/05/23 12:47:10;;;;;;;5.17;4.63;;;24.60;64.60;;;;;;5007235;28;20863;-47
2022/05/23 12:50:16;;;;;;;6.23;4.57;;;24.60;65.00;;;;;;5006299;28;21056;-47
2022/05/23 12:53:07;;;;;;;5.20;4.70;;;24.60;65.00;;;;;;5008821;28;20456;-48
2022/05/23 12:55:40;;;;;;;7.50;4.60;;;24.50;65.50;;;;;;5005332;28;20943;-47
2022/05/23 12:58:18;;;;;;;11.03;5.47;;;24.50;65.70;;;;;;5011863;28;20459;-47
2022/05/23 13:01:02;;;;;;;6.17;5.03;;;24.40;66.20;;;;;;5011509;28;20450;-47
2022/05/23 13:03:51;;;;;;;8.47;5.70;;;24.40;66.40;;;;;;5008772;28;20463;-47
2022/05/23 13:06:22;;;;;;;6.23;4.40;;;24.40;66.70;;;;;;5007922;28;20487;-48
2022/05/23 13:09:10;;;;;;;7.63;4.87;;;24.40;66.50;;;;;;5011120;28;20464;-48
2022/05/23 13:11:43;;;;;;;5.40;4.33;;;24.20;66.60;;;;;;5012470;28;20456;-48
2022/05/23 13:14:11;;;;;;;8.50;5.30;;;24.10;66.40;;;;;;5007112;28;20465;-47
2022/05/23 13:16:39;;;;;;;13.13;7.00;;;24.10;66.20;;;;;;5003611;28;20463;-48
2022/05/23 13:22:06;;;;;;;7.63;6.07;;;24.00;66.60;;;;;;5013611;28;20459;-48
2022/05/23 13:24:49;;;;;;;5.67;5.17;;;24.10;66.70;;;;;;5009450;28;20479;-47
2022/05/23 13:27:38;;;;;;;5.90;4.53;;;24.10;66.60;;;;;;5008931;28;20885;-47
2022/05/23 13:30:08;;;;;;;5.67;5.17;;;24.20;66.70;;;;;;5005713;28;20957;-47
2022/05/23 13:32:36;;;;;;;6.40;5.23;;;24.10;67.10;;;;;;5008768;28;20479;-47
2022/05/23 13:35:18;;;;;;;5.60;4.90;;;24.10;67.30;;;;;;4990129;28;20464;-48
2022/05/23 13:37:44;;;;;;;7.70;5.20;;;24.20;67.40;;;;;;5004777;28;20475;-47
2022/05/23 13:40:23;;;;;;;5.93;4.83;;;24.20;67.10;;;;;;5005584;28;20464;-48
2022/05/23 13:43:07;;;;;;;7.33;5.20;;;24.20;67.10;;;;;;5012309;28;20459;-48
2022/05/23 13:45:35;;;;;;;6.43;5.80;;;24.30;67.20;;;;;;5006063;28;20844;-48
2022/05/23 13:48:08;;;;;;;6.13;5.30;;;24.30;67.30;;;;;;5004212;28;21212;-49
2022/05/23 13:50:46;;;;;;;5.40;4.90;;;24.30;67.20;;;;;;5009820;28;20877;-48
2022/05/23 13:53:18;;;;;;;6.83;5.20;;;24.40;67.30;;;;;;4991586;28;20439;-48
2022/05/23 13:55:50;;;;;;;6.63;5.43;;;24.40;67.30;;;;;;5013644;28;20840;-49
2022/05/23 13:58:26;;;;;;;6.87;5.83;;;24.40;67.10;;;;;;5013132;28;21041;-49
2022/05/23 14:01:01;;;;;;;6.63;5.90;;;24.40;67.10;;;;;;5011533;28;20971;-49
2022/05/23 14:03:48;;;;;;;7.90;5.80;;;24.50;67.30;;;;;;4990531;28;20475;-48
2022/05/23 14:06:19;;;;;;;6.20;5.60;;;24.50;67.10;;;;;;5010157;28;20827;-48
2022/05/23 14:08:55;;;;;;;6.80;6.20;;;24.40;67.30;;;;;;5010185;28;20475;-48
2022/05/23 14:11:30;;;;;;;10.03;5.70;;;24.40;67.50;;;;;;5011737;28;20452;-47
2022/05/23 14:14:14;;;;;;;6.40;5.73;;;24.50;67.40;;;;;;5011160;28;20542;-48